createdAt,value
2022-09-12T00:01:35.344Z,99753.20
2022-09-12T00:04:03.734Z,99753.48
2022-09-12T00:06:37.774Z,99751.73
2022-09-12T00:09:11.114Z,99754.11
2022-09-12T00:11:43.187Z,99753.02
2022-09-12T00:14:15.074Z,99754.46
2022-09-12T00:16:44.749Z,99749.79
2022-09-12T00:19:14.412Z,99749.13
2022-09-12T00:21:42.918Z,99751.64
2022-09-12T00:24:11.749Z,99755.95
2022-09-12T00:26:40.237Z,99756.15
2022-09-12T00:29:08.684Z,99755.45
2022-09-12T00:31:37.155Z,99752.64
2022-09-12T00:34:05.612Z,99751.73
2022-09-12T00:36:34.339Z,99756.23
2022-09-12T00:39:05.511Z,99759.55
2022-09-12T00:41:38.315Z,99764.59
2022-09-12T00:44:13.011Z,99764.02
2022-09-12T00:47:11.550Z,99761.11
2022-09-12T00:49:53.954Z,99761.04
2022-09-12T00:52:22.263Z,99755.36
2022-09-12T00:54:58.228Z,99756.15
2022-09-12T00:57:36.164Z,99754.21
2022-09-12T01:00:17.476Z,99753.58
2022-09-12T01:02:51.713Z,99755.23
2022-09-12T01:05:21.746Z,99750.47
2022-09-12T01:07:51.968Z,99753.06
2022-09-12T01:10:21.486Z,99749.95
2022-09-12T01:12:50.431Z,99752.85
2022-09-12T01:15:19.814Z,99751.55
2022-09-12T01:18:30.501Z,99751.98
2022-09-12T01:21:26.266Z,99753.85
2022-09-12T01:24:28.086Z,99748.45
2022-09-12T01:27:30.749Z,99745.52
2022-09-12T01:30:42.272Z,99748.21
2022-09-12T01:33:41.508Z,99748.20
2022-09-12T01:36:31.100Z,99737.95
2022-09-12T01:39:13.913Z,99736.41
2022-09-12T01:42:10.543Z,99736.97
2022-09-12T01:44:41.476Z,99739.63
2022-09-12T01:47:23.047Z,99744.95
2022-09-12T01:49:58.958Z,99752.33
2022-09-12T01:52:51.146Z,99755.45
2022-09-12T01:55:32.128Z,99759.84
2022-09-12T01:58:26.828Z,99758.16
2022-09-12T02:01:07.979Z,99754.07
2022-09-12T02:04:04.590Z,99753.61
2022-09-12T02:06:47.524Z,99753.60
2022-09-12T02:09:23.947Z,99750.52
2022-09-12T02:12:00.037Z,99749.34
2022-09-12T02:14:34.893Z,99751.23
2022-09-12T02:17:15.132Z,99754.36
2022-09-12T02:19:49.520Z,99758.18
2022-09-12T02:22:22.821Z,99762.77
2022-09-12T02:24:57.613Z,99756.92
2022-09-12T02:27:38.581Z,99753.70
2022-09-12T02:30:09.835Z,99753.98
2022-09-12T02:32:45.425Z,99754.41
2022-09-12T02:35:44.358Z,99756.58
2022-09-12T02:38:44.667Z,99753.62
2022-09-12T02:41:17.929Z,99759.29
2022-09-12T02:43:49.147Z,99762.70
2022-09-12T02:46:27.548Z,99764.20
2022-09-12T02:48:56.883Z,99768.15
2022-09-12T02:51:27.067Z,99769.64
2022-09-12T02:53:56.169Z,99774.06
2022-09-12T02:56:29.359Z,99774.48
2022-09-12T02:59:07.337Z,99777.53
2022-09-12T03:02:07.184Z,99785.02
2022-09-12T03:04:49.126Z,99789.52
2022-09-12T03:07:49.439Z,99787.14
2022-09-12T03:10:48.648Z,99793.38
2022-09-12T03:13:33.661Z,99793.80
2022-09-12T03:16:28.896Z,99794.55
2022-09-12T03:19:24.037Z,99795.64
2022-09-12T03:22:19.279Z,99799.58
2022-09-12T03:25:19.407Z,99794.23
2022-09-12T03:28:08.293Z,99794.90
2022-09-12T03:30:56.630Z,99798.73
2022-09-12T03:33:26.795Z,99802.30
2022-09-12T03:35:56.053Z,99802.60
2022-09-12T03:38:24.679Z,99803.10
2022-09-12T03:40:54.964Z,99802.18
2022-09-12T03:43:23.965Z,99812.52
2022-09-12T03:45:53.560Z,99816.66
2022-09-12T03:48:22.111Z,99821.34
2022-09-12T03:50:50.485Z,99829.33
2022-09-12T03:53:18.898Z,99830.73
2022-09-12T03:55:47.286Z,99830.48
2022-09-12T03:58:15.635Z,99827.13
2022-09-12T04:00:44.525Z,99829.58
2022-09-12T04:03:13.061Z,99829.04
2022-09-12T04:05:41.528Z,99833.96
2022-09-12T04:08:09.968Z,99832.57
2022-09-12T04:10:38.612Z,99832.41
2022-09-12T04:13:07.325Z,99824.73
2022-09-12T04:15:35.733Z,99832.38
2022-09-12T04:18:06.137Z,99832.65
2022-09-12T04:20:36.687Z,99827.83
2022-09-12T04:23:05.277Z,99826.69
2022-09-12T04:25:33.755Z,99832.58
2022-09-12T04:28:02.459Z,99837.73
2022-09-12T04:30:30.821Z,99834.29
2022-09-12T04:32:59.143Z,99839.45
2022-09-12T04:35:27.762Z,99843.14
2022-09-12T04:37:56.285Z,99845.70
2022-09-12T04:40:24.768Z,99843.98
2022-09-12T04:42:53.150Z,99847.34
2022-09-12T04:45:21.933Z,99851.12
2022-09-12T04:47:50.542Z,99860.05
2022-09-12T04:50:19.394Z,99867.47
2022-09-12T04:52:55.321Z,99860.23
2022-09-12T04:55:25.561Z,99862.92
2022-09-12T04:57:53.965Z,99863.72
2022-09-12T05:00:22.388Z,99866.40
2022-09-12T05:02:50.799Z,99868.73
2022-09-12T05:05:19.126Z,99871.27
2022-09-12T05:07:47.426Z,99873.11
2022-09-12T05:10:15.929Z,99874.35
2022-09-12T05:12:44.317Z,99873.95
2022-09-12T05:15:12.724Z,99878.27
2022-09-12T05:17:41.101Z,99879.02
2022-09-12T05:20:13.006Z,99880.14
2022-09-12T05:22:41.360Z,99877.63
2022-09-12T05:25:10.229Z,99875.44
2022-09-12T05:27:38.608Z,99877.05
2022-09-12T05:30:08.391Z,99878.46
2022-09-12T05:32:36.745Z,99882.41
2022-09-12T05:35:05.492Z,99882.02
2022-09-12T05:37:34.052Z,99873.88
2022-09-12T05:40:07.845Z,99875.45
2022-09-12T05:42:36.945Z,99876.95
2022-09-12T05:45:06.282Z,99879.70
2022-09-12T05:47:34.883Z,99876.56
2022-09-12T05:50:06.483Z,99879.06
2022-09-12T05:52:34.785Z,99874.73
2022-09-12T05:55:05.304Z,99873.41
2022-09-12T05:57:33.850Z,99870.35
2022-09-12T06:00:04.027Z,99873.38
2022-09-12T06:02:40.565Z,99865.42
2022-09-12T06:05:09.246Z,99874.88
2022-09-12T06:07:37.606Z,99874.40
2022-09-12T06:10:06.699Z,99877.22
2022-09-12T06:12:34.973Z,99880.08
2022-09-12T06:15:04.155Z,99878.61
2022-09-12T06:17:32.579Z,99881.52
2022-09-12T06:20:02.071Z,99882.16
2022-09-12T06:22:31.894Z,99883.06
2022-09-12T06:25:00.320Z,99879.59
2022-09-12T06:27:29.341Z,99881.29
2022-09-12T06:29:57.774Z,99885.11
2022-09-12T06:32:26.146Z,99890.00
2022-09-12T06:34:57.830Z,99889.80
2022-09-12T06:37:26.237Z,99891.21
2022-09-12T06:39:56.105Z,99897.59
2022-09-12T06:42:24.868Z,99888.02
2022-09-12T06:44:58.339Z,99895.98
2022-09-12T06:47:27.257Z,99896.04
2022-09-12T06:49:55.582Z,99897.33
2022-09-12T06:52:24.070Z,99898.94
2022-09-12T06:54:52.448Z,99902.55
2022-09-12T06:57:20.855Z,99897.48
2022-09-12T06:59:49.262Z,99900.02
2022-09-12T07:02:17.688Z,99900.55
2022-09-12T07:04:46.125Z,99896.73
2022-09-12T07:07:14.853Z,99891.98
2022-09-12T07:09:43.562Z,99895.10
2022-09-12T07:12:12.715Z,99894.09
2022-09-12T07:14:41.807Z,99896.86
2022-09-12T07:17:10.229Z,99891.70
2022-09-12T07:19:38.855Z,99890.23
2022-09-12T07:22:07.295Z,99891.71
2022-09-12T07:24:36.098Z,99896.31
2022-09-12T07:27:05.639Z,99902.84
2022-09-12T07:29:38.047Z,99903.15
2022-09-12T07:32:07.274Z,99902.34
2022-09-12T07:34:36.167Z,99901.88
2022-09-12T07:37:06.036Z,99901.48
2022-09-12T07:39:34.500Z,99907.20
2022-09-12T07:42:04.328Z,99908.14
2022-09-12T07:44:33.416Z,99907.95
2022-09-12T07:47:02.424Z,99907.70
2022-09-12T07:49:30.871Z,99907.20
2022-09-12T07:51:59.215Z,99902.23
2022-09-12T07:54:27.909Z,99905.13
2022-09-12T07:56:56.414Z,99901.14
2022-09-12T07:59:41.820Z,99896.05
2022-09-12T08:02:17.245Z,99892.48
2022-09-12T08:04:49.133Z,99890.52
2022-09-12T08:07:19.263Z,99889.40
2022-09-12T08:09:47.888Z,99892.33
2022-09-12T08:12:18.303Z,99888.96
2022-09-12T08:14:46.765Z,99890.85
2022-09-12T08:17:15.138Z,99883.00
2022-09-12T08:19:43.887Z,99882.39
2022-09-12T08:22:13.349Z,99880.40
2022-09-12T08:24:41.908Z,99877.48
2022-09-12T08:27:10.836Z,99877.90
2022-09-12T08:29:40.427Z,99876.02
2022-09-12T08:32:08.853Z,99883.56
2022-09-12T08:34:37.210Z,99886.04
2022-09-12T08:37:06.315Z,99885.61
2022-09-12T08:39:35.024Z,99886.23
2022-09-12T08:42:07.267Z,99876.80
2022-09-12T08:44:55.554Z,99879.46
2022-09-12T08:47:36.750Z,99877.00
2022-09-12T08:50:14.430Z,99877.49
2022-09-12T08:53:03.660Z,99876.27
2022-09-12T08:55:54.057Z,99878.19
2022-09-12T08:58:29.193Z,99874.05
2022-09-12T09:01:31.539Z,99873.57
2022-09-12T09:04:18.789Z,99876.83
2022-09-12T09:07:26.172Z,99876.59
2022-09-12T09:10:25.697Z,99877.37
2022-09-12T09:13:04.007Z,99876.02
2022-09-12T09:16:00.445Z,99874.61
2022-09-12T09:18:33.207Z,99867.23
2022-09-12T09:21:30.309Z,99857.40
2022-09-12T09:24:10.756Z,99870.52
2022-09-12T09:27:02.983Z,99870.61
2022-09-12T09:29:41.235Z,99874.48
2022-09-12T09:32:27.443Z,99874.70
2022-09-12T09:34:56.660Z,99876.55
2022-09-12T09:37:42.310Z,99877.75
2022-09-12T09:40:38.437Z,99874.66
2022-09-12T09:43:16.938Z,99873.72
2022-09-12T09:45:47.826Z,99875.05
2022-09-12T09:48:22.735Z,99877.45
2022-09-12T09:50:51.703Z,99878.23
2022-09-12T09:53:56.922Z,99880.09
2022-09-12T09:56:45.360Z,99878.77
2022-09-12T09:59:18.407Z,99875.88
2022-09-12T10:02:03.588Z,99875.30
2022-09-12T10:04:41.538Z,99874.66
2022-09-12T10:07:20.050Z,99876.16
2022-09-12T10:10:17.320Z,99873.64
2022-09-12T10:12:46.125Z,99873.58
2022-09-12T10:15:26.902Z,99877.52
2022-09-12T10:17:57.353Z,99875.05
2022-09-12T10:20:34.207Z,99872.80
2022-09-12T10:23:37.415Z,99875.42
2022-09-12T10:26:13.723Z,99879.58
2022-09-12T10:28:49.623Z,99882.73
2022-09-12T10:31:33.789Z,99881.78
2022-09-12T10:34:02.233Z,99883.31
2022-09-12T10:36:39.955Z,99881.37
2022-09-12T10:39:19.467Z,99884.48
2022-09-12T10:41:48.033Z,99884.84
2022-09-12T10:44:28.831Z,99886.48
2022-09-12T10:46:59.293Z,99886.54
2022-09-12T10:49:38.294Z,99886.21
2022-09-12T10:52:25.488Z,99891.61
2022-09-12T10:54:54.778Z,99893.73
2022-09-12T10:57:26.141Z,99892.33
2022-09-12T11:00:18.095Z,99889.54
2022-09-12T11:04:01.828Z,99891.86
2022-09-12T11:07:05.178Z,99893.70
2022-09-12T11:09:57.225Z,99890.91
2022-09-12T11:12:50.654Z,99892.31
2022-09-12T11:16:14.681Z,99899.52
2022-09-12T11:18:56.049Z,99897.51
2022-09-12T11:21:58.447Z,99895.63
2022-09-12T11:24:58.224Z,99893.73
2022-09-12T11:28:03.464Z,99889.44
2022-09-12T11:30:48.775Z,99887.68
2022-09-12T11:33:57.061Z,99885.49
2022-09-12T11:37:01.010Z,99888.25
2022-09-12T11:39:46.014Z,99884.96
2022-09-12T11:42:24.077Z,99882.55
2022-09-12T11:45:22.369Z,99888.17
2022-09-12T11:47:58.017Z,99889.09
2022-09-12T11:50:32.137Z,99884.22
2022-09-12T11:53:28.213Z,99883.60
2022-09-12T11:56:14.498Z,99885.84
2022-09-12T11:58:49.366Z,99883.80
2022-09-12T12:01:36.277Z,99885.08
2022-09-12T12:04:13.037Z,99894.66
2022-09-12T12:06:58.043Z,99898.30
2022-09-12T12:09:26.513Z,99899.91
2022-09-12T12:11:59.929Z,99905.75
2022-09-12T12:14:51.258Z,99905.65
2022-09-12T12:17:24.031Z,99909.44
2022-09-12T12:20:08.401Z,99903.31
2022-09-12T12:22:37.909Z,99911.45
2022-09-12T12:25:12.377Z,99911.88
2022-09-12T12:27:54.696Z,99915.97
2022-09-12T12:30:33.481Z,99913.86
2022-09-12T12:33:11.017Z,99909.13
2022-09-12T12:35:43.313Z,99915.48
2022-09-12T12:38:30.407Z,99913.30
2022-09-12T12:41:17.171Z,99907.45
2022-09-12T12:43:48.150Z,99910.67
2022-09-12T12:46:21.358Z,99917.23
2022-09-12T12:49:19.504Z,99920.96
2022-09-12T12:51:56.045Z,99919.75
2022-09-12T12:54:31.570Z,99921.66
2022-09-12T12:57:27.391Z,99918.74
2022-09-12T13:00:25.122Z,99914.61
2022-09-12T13:03:08.214Z,99915.58
2022-09-12T13:05:50.177Z,99920.98
2022-09-12T13:08:18.353Z,99925.30
2022-09-12T13:11:10.869Z,99925.93
2022-09-12T13:13:58.373Z,99925.67
2022-09-12T13:16:33.538Z,99921.95
2022-09-12T13:19:18.346Z,99923.61
2022-09-12T13:22:05.753Z,99921.84
2022-09-12T13:24:52.396Z,99918.67
2022-09-12T13:27:26.008Z,99917.92
2022-09-12T13:30:15.781Z,99922.61
2022-09-12T13:32:44.508Z,99924.14
2022-09-12T13:35:43.286Z,99922.75
2022-09-12T13:38:36.870Z,99921.63
2022-09-12T13:41:54.722Z,99918.50
2022-09-12T13:44:26.578Z,99927.75
2022-09-12T13:46:58.881Z,99933.77
2022-09-12T13:49:40.065Z,99924.15
2022-09-12T13:52:20.890Z,99933.23
2022-09-12T13:54:54.190Z,99928.55
2022-09-12T13:57:38.510Z,99928.67
2022-09-12T14:00:19.670Z,99930.30
2022-09-12T14:02:49.475Z,99931.38
2022-09-12T14:05:26.823Z,99934.89
2022-09-12T14:07:59.446Z,99938.80
2022-09-12T14:10:37.964Z,99942.00
2022-09-12T14:13:26.614Z,99933.61
2022-09-12T14:15:57.073Z,99946.95
2022-09-12T14:18:33.905Z,99942.27
2022-09-12T14:21:30.439Z,99950.88
2022-09-12T14:24:00.861Z,99951.55
2022-09-12T14:26:34.242Z,99951.58
2022-09-12T14:29:07.483Z,99946.67
2022-09-12T14:31:39.557Z,99949.91
2022-09-12T14:34:14.159Z,99951.09
2022-09-12T14:36:57.795Z,99950.06
2022-09-12T14:39:39.965Z,99951.48
2022-09-12T14:42:27.220Z,99951.34
2022-09-12T14:45:01.461Z,99953.30
2022-09-12T14:47:40.963Z,99953.66
2022-09-12T14:50:26.294Z,99951.84
2022-09-12T14:53:17.023Z,99953.61
2022-09-12T14:55:53.551Z,99953.20
2022-09-12T14:58:22.609Z,99953.02
2022-09-12T15:01:14.358Z,99955.26
2022-09-12T15:03:49.399Z,99955.34
2022-09-12T15:06:38.969Z,99951.33
2022-09-12T15:09:13.767Z,99949.19
2022-09-12T15:11:42.054Z,99951.66
2022-09-12T15:14:14.338Z,99945.89
2022-09-12T15:16:43.053Z,99945.88
2022-09-12T15:19:11.324Z,99947.20
2022-09-12T15:21:39.639Z,99942.94
2022-09-12T15:24:09.400Z,99948.70
2022-09-12T15:26:37.669Z,99950.06
2022-09-12T15:29:05.918Z,99948.92
2022-09-12T15:31:34.350Z,99950.90
2022-09-12T15:34:03.637Z,99951.69
2022-09-12T15:36:32.023Z,99950.04
2022-09-12T15:39:00.287Z,99954.66
2022-09-12T15:41:38.253Z,99954.80
2022-09-12T15:44:12.459Z,99958.87
2022-09-12T15:46:41.039Z,99961.36
2022-09-12T15:49:09.305Z,99961.64
2022-09-12T15:51:37.595Z,99962.98
2022-09-12T15:54:05.911Z,99963.13
2022-09-12T15:56:34.337Z,99960.82
2022-09-12T15:59:03.259Z,99962.12
2022-09-12T16:01:31.846Z,99964.17
2022-09-12T16:04:03.233Z,99966.23
2022-09-12T16:06:37.260Z,99966.00
2022-09-12T16:09:06.085Z,99965.39
2022-09-12T16:11:34.684Z,99966.77
2022-09-12T16:14:05.101Z,99956.85
2022-09-12T16:16:34.005Z,99967.53
2022-09-12T16:19:04.077Z,99970.95
2022-09-12T16:21:32.553Z,99972.33
2022-09-12T16:24:00.923Z,99970.65
2022-09-12T16:26:29.652Z,99979.33
2022-09-12T16:28:59.555Z,99973.52
2022-09-12T16:31:29.101Z,99976.86
2022-09-12T16:33:57.745Z,99976.52
2022-09-12T16:36:26.073Z,99981.02
2022-09-12T16:38:54.781Z,99984.23
2022-09-12T16:41:25.310Z,99988.77
2022-09-12T16:43:54.628Z,99993.39
2022-09-12T16:46:30.714Z,99997.69
2022-09-12T16:48:59.490Z,100002.66
2022-09-12T16:51:35.995Z,100000.74
2022-09-12T16:54:04.754Z,99996.34
2022-09-12T16:56:34.232Z,100001.63
2022-09-12T16:59:04.330Z,100007.21
2022-09-12T17:01:34.988Z,100006.08
2022-09-12T17:04:03.394Z,100002.86
2022-09-12T17:06:33.374Z,100005.08
2022-09-12T17:09:04.262Z,100007.42
2022-09-12T17:11:36.563Z,100005.64
2022-09-12T17:14:08.168Z,100010.97
2022-09-12T17:16:46.930Z,100015.23
2022-09-12T17:19:26.672Z,100020.02
2022-09-12T17:21:55.943Z,100017.46
2022-09-12T17:24:24.734Z,100024.57
2022-09-12T17:26:53.845Z,100026.69
2022-09-12T17:29:22.270Z,100025.04
2022-09-12T17:31:50.621Z,100027.05
2022-09-12T17:34:18.918Z,100026.59
2022-09-12T17:36:48.599Z,100026.48
2022-09-12T17:39:17.099Z,100025.41
2022-09-12T17:41:46.232Z,100026.92
2022-09-12T17:44:15.403Z,100030.91
2022-09-12T17:46:45.023Z,100027.10
2022-09-12T17:49:16.742Z,100027.59
2022-09-12T17:51:45.486Z,100029.21
2022-09-12T17:54:17.360Z,100026.17
2022-09-12T17:56:49.081Z,100017.96
2022-09-12T17:59:20.595Z,100019.89
2022-09-12T18:02:07.995Z,100016.44
2022-09-12T18:04:36.558Z,100027.55
2022-09-12T18:07:06.673Z,100024.42
2022-09-12T18:09:36.354Z,100022.01
2022-09-12T18:12:05.785Z,100022.44
2022-09-12T18:14:34.932Z,100011.81
2022-09-12T18:17:04.690Z,100021.67
2022-09-12T18:19:33.544Z,100016.95
2022-09-12T18:22:07.882Z,100014.71
2022-09-12T18:24:36.299Z,100013.17
2022-09-12T18:27:05.106Z,100018.23
2022-09-12T18:29:33.632Z,100016.54
2022-09-12T18:32:02.361Z,100017.58
2022-09-12T18:34:30.712Z,100013.54
2022-09-12T18:36:59.270Z,100013.95
2022-09-12T18:39:28.079Z,100014.00
2022-09-12T18:41:56.534Z,100015.48
2022-09-12T18:44:24.964Z,100016.03
2022-09-12T18:46:53.205Z,100015.18
2022-09-12T18:49:21.631Z,100013.25
2022-09-12T18:51:50.627Z,100011.17
2022-09-12T18:54:19.239Z,100008.60
2022-09-12T18:56:50.520Z,100006.70
2022-09-12T18:59:18.786Z,100009.03
2022-09-12T19:01:47.546Z,100004.63
2022-09-12T19:04:16.715Z,100004.86
2022-09-12T19:06:48.095Z,100004.02
2022-09-12T19:09:20.736Z,99999.80
2022-09-12T19:11:50.075Z,99998.94
2022-09-12T19:14:24.977Z,100004.06
2022-09-12T19:16:53.662Z,100007.41
2022-09-12T19:19:22.444Z,100003.13
2022-09-12T19:21:50.779Z,100005.06
2022-09-12T19:24:21.879Z,100008.88
2022-09-12T19:26:51.823Z,100006.98
2022-09-12T19:29:20.318Z,100004.41
2022-09-12T19:31:48.867Z,100008.48
2022-09-12T19:34:17.283Z,100003.36
2022-09-12T19:36:46.986Z,100003.05
2022-09-12T19:39:17.827Z,100004.64
2022-09-12T19:41:47.674Z,100002.55
2022-09-12T19:44:16.097Z,100002.83
2022-09-12T19:46:44.549Z,100010.64
2022-09-12T19:49:13.140Z,100008.80
2022-09-12T19:51:41.989Z,100009.02
2022-09-12T19:54:10.391Z,100010.43
2022-09-12T19:56:38.754Z,100005.75
2022-09-12T19:59:07.036Z,100008.59
2022-09-12T20:01:37.337Z,100008.64
2022-09-12T20:04:06.932Z,100007.63
2022-09-12T20:06:42.873Z,100007.16
2022-09-12T20:09:11.128Z,100007.08
2022-09-12T20:11:39.831Z,100008.15
2022-09-12T20:14:08.080Z,100008.85
2022-09-12T20:16:36.554Z,100005.38
2022-09-12T20:19:08.399Z,100008.04
2022-09-12T20:21:37.267Z,100007.31
2022-09-12T20:24:10.871Z,100006.44
2022-09-12T20:26:40.822Z,100004.14
2022-09-12T20:29:10.208Z,100004.48
2022-09-12T20:31:41.255Z,100007.12
2022-09-12T20:34:21.054Z,100006.29
2022-09-12T20:36:49.669Z,100008.05
2022-09-12T20:39:21.933Z,100011.21
2022-09-12T20:41:50.069Z,100009.86
2022-09-12T20:44:18.646Z,100007.14
2022-09-12T20:46:47.577Z,100007.85
2022-09-12T20:49:16.092Z,100008.02
2022-09-12T20:51:44.741Z,100007.16
2022-09-12T20:54:13.013Z,100009.98
2022-09-12T20:56:41.324Z,100008.92
2022-09-12T20:59:13.790Z,100010.51
2022-09-12T21:01:42.420Z,100008.20
2022-09-12T21:04:14.884Z,100010.12
2022-09-12T21:06:43.702Z,100006.23
2022-09-12T21:09:12.036Z,100004.81
2022-09-12T21:11:40.936Z,100002.45
2022-09-12T21:14:09.274Z,100004.05
2022-09-12T21:16:38.799Z,100007.17
2022-09-12T21:19:07.174Z,100006.27
2022-09-12T21:21:35.870Z,100004.33
2022-09-12T21:24:05.844Z,100005.21
2022-09-12T21:26:34.313Z,100003.66
2022-09-12T21:29:02.770Z,100002.40
2022-09-12T21:31:31.210Z,99998.54
2022-09-12T21:33:59.638Z,99995.72
2022-09-12T21:36:28.077Z,99996.78
2022-09-12T21:38:59.592Z,99995.59
2022-09-12T21:41:28.896Z,99991.72
2022-09-12T21:43:57.245Z,99990.84
2022-09-12T21:46:25.763Z,99989.98
2022-09-12T21:48:54.307Z,99985.09
2022-09-12T21:51:22.613Z,99987.51
2022-09-12T21:53:50.950Z,99992.27
2022-09-12T21:56:19.326Z,99990.84
2022-09-12T21:58:47.657Z,99992.05
2022-09-12T22:01:16.036Z,99992.60
2022-09-12T22:03:44.973Z,99994.65
2022-09-12T22:06:19.535Z,99992.88
2022-09-12T22:08:50.281Z,99993.05
2022-09-12T22:11:20.795Z,99992.01
2022-09-12T22:13:49.501Z,99988.83
2022-09-12T22:16:18.055Z,99984.08
2022-09-12T22:18:50.832Z,99984.25
2022-09-12T22:21:22.827Z,99984.10
2022-09-12T22:24:10.300Z,99978.64
2022-09-12T22:26:44.316Z,99981.80
2022-09-12T22:29:13.796Z,99979.90
2022-09-12T22:31:42.669Z,99983.05
2022-09-12T22:34:11.106Z,99984.29
2022-09-12T22:36:39.931Z,99982.70
2022-09-12T22:39:08.818Z,99986.92
2022-09-12T22:41:37.309Z,99983.09
2022-09-12T22:44:06.685Z,99982.20
2022-09-12T22:46:35.457Z,99984.70
2022-09-12T22:49:06.450Z,99988.77
2022-09-12T22:51:35.356Z,99987.58
2022-09-12T22:54:05.908Z,99983.67
2022-09-12T22:56:34.559Z,99980.17
2022-09-12T22:59:02.960Z,99977.34
2022-09-12T23:01:32.035Z,99981.09
2022-09-12T23:04:00.602Z,99979.16
2022-09-12T23:06:29.789Z,99977.59
2022-09-12T23:08:58.191Z,99976.02
2022-09-12T23:11:27.968Z,99975.89
2022-09-12T23:13:56.354Z,99973.96
2022-09-12T23:16:26.805Z,99970.97
2022-09-12T23:18:55.236Z,99971.71
2022-09-12T23:21:24.470Z,99971.90
2022-09-12T23:23:52.934Z,99967.70
2022-09-12T23:26:28.434Z,99969.98
2022-09-12T23:29:00.158Z,99967.51
2022-09-12T23:31:31.799Z,99968.75
2022-09-12T23:34:03.947Z,99969.63
2022-09-12T23:36:33.518Z,99966.35
2022-09-12T23:39:02.451Z,99964.05
2022-09-12T23:41:31.376Z,99962.39
2022-09-12T23:43:59.822Z,99962.44
2022-09-12T23:46:28.114Z,99962.13
2022-09-12T23:48:56.666Z,99960.12
2022-09-12T23:51:25.061Z,99962.66
2022-09-12T23:53:53.384Z,99963.64
2022-09-12T23:56:22.360Z,99963.69
2022-09-12T23:58:50.951Z,99960.30
